Waukenabo, Minnesota
Current Conditions -  °F | °C
As of 4:53 PM on Monday 24 Nov 2014 (Local Time) from KAIT Reporting Station
Unknown Precip Unknown Precip  
Wind Chill:   Ceiling: 2300
Heat Index: 18°   Visibility: 10mi
Dew Point: 10°   Wind: 10mph
Humidity: 73%   Direction: 320°NW
Pressure: 29.66"   Gusts: 24mph
Location:  46.7281°N, 93.6101°W
Report Text: KAIT 242253Z AUTO 32009G21KT 10SM UP OVC023 M08/M12 A2966 RMK AO2
Loading
Personal Weather Stations






























Interactive Weather Map New forecast layout! Learn more

10-Day Weather Forecast

Advertisements
Track Severe Weather on mobile